createdAt,value
2018-11-04T00:02:23.229Z,102098.00
2018-11-04T00:04:50.997Z,102098.88
2018-11-04T00:07:18.207Z,102091.47
2018-11-04T00:09:45.408Z,102086.61
2018-11-04T00:12:12.563Z,102081.84
2018-11-04T00:14:39.741Z,102080.94
2018-11-04T00:17:07.370Z,102082.27
2018-11-04T00:19:34.545Z,102081.95
2018-11-04T00:22:01.681Z,102089.02
2018-11-04T00:24:28.968Z,102076.45
2018-11-04T00:26:56.162Z,102086.75
2018-11-04T00:29:23.359Z,102083.69
2018-11-04T00:31:50.546Z,102077.55
2018-11-04T00:34:17.704Z,102075.86
2018-11-04T00:36:44.864Z,102070.22
2018-11-04T00:39:12.073Z,102065.91
2018-11-04T00:41:39.224Z,102058.19
2018-11-04T00:44:06.450Z,102062.56
2018-11-04T00:46:33.661Z,102056.50
2018-11-04T00:49:00.816Z,102059.28
2018-11-04T00:51:27.958Z,102060.22
2018-11-04T00:53:55.250Z,102054.16
2018-11-04T00:56:22.420Z,102049.00
2018-11-04T00:58:49.566Z,102042.57
2018-11-04T01:01:16.760Z,102035.26
2018-11-04T01:03:43.905Z,102030.98
2018-11-04T01:06:11.068Z,102032.92
2018-11-04T01:08:38.384Z,102026.92
2018-11-04T01:11:05.566Z,102020.47
2018-11-04T01:13:32.781Z,102012.06
2018-11-04T01:15:59.989Z,102010.02
2018-11-04T01:18:27.150Z,102004.78
2018-11-04T01:20:54.318Z,102004.04
2018-11-04T01:23:22.611Z,102003.19
2018-11-04T01:25:50.148Z,101996.77
2018-11-04T01:28:17.291Z,101998.18
2018-11-04T01:30:44.531Z,101998.26
2018-11-04T01:33:12.658Z,101988.72
2018-11-04T01:35:40.889Z,101984.36
2018-11-04T01:38:08.388Z,101990.20
2018-11-04T01:40:36.167Z,101984.19
2018-11-04T01:43:03.410Z,101988.66
2018-11-04T01:45:31.732Z,101985.17
2018-11-04T01:48:02.637Z,101983.95
2018-11-04T01:50:29.817Z,101978.86
2018-11-04T01:52:57.882Z,101983.22
2018-11-04T01:55:26.654Z,101980.32
2018-11-04T01:57:53.894Z,101982.91
2018-11-04T02:00:21.636Z,101969.10
2018-11-04T02:02:49.487Z,101976.59
2018-11-04T02:05:16.680Z,101972.75
2018-11-04T02:07:49.865Z,101960.99
2018-11-04T02:10:18.986Z,101959.30
2018-11-04T02:12:46.465Z,101955.39
2018-11-04T02:15:14.377Z,101951.11
2018-11-04T02:17:42.200Z,101943.27
2018-11-04T02:20:10.924Z,101946.40
2018-11-04T02:22:39.321Z,101929.01
2018-11-04T02:25:07.764Z,101928.62
2018-11-04T02:27:35.089Z,101927.00
2018-11-04T02:30:02.319Z,101920.42
2018-11-04T02:32:29.484Z,101921.30
2018-11-04T02:34:56.637Z,101923.54
2018-11-04T02:37:23.856Z,101918.77
2018-11-04T02:39:51.108Z,101915.70
2018-11-04T02:42:18.271Z,101917.91
2018-11-04T02:44:45.466Z,101919.25
2018-11-04T02:47:12.620Z,101910.97
2018-11-04T02:49:39.763Z,101907.02
2018-11-04T02:52:07.015Z,101906.61
2018-11-04T02:54:34.186Z,101908.88
2018-11-04T02:57:01.377Z,101905.78
2018-11-04T02:59:28.602Z,101906.66
2018-11-04T03:01:55.896Z,101902.30
2018-11-04T03:04:22.988Z,101895.31
2018-11-04T03:06:50.184Z,101893.10
2018-11-04T03:09:17.352Z,101893.12
2018-11-04T03:11:44.762Z,101887.05
2018-11-04T03:14:12.056Z,101892.70
2018-11-04T03:16:39.225Z,101890.52
2018-11-04T03:19:06.395Z,101879.20
2018-11-04T03:21:33.618Z,101875.74
2018-11-04T03:24:00.888Z,101874.88
2018-11-04T03:26:28.069Z,101882.33
2018-11-04T03:28:56.393Z,101874.05
2018-11-04T03:31:23.545Z,101870.10
2018-11-04T03:33:50.721Z,101865.31
2018-11-04T03:36:18.637Z,101869.27
2018-11-04T03:38:45.824Z,101869.23
2018-11-04T03:41:12.978Z,101867.56
2018-11-04T03:43:40.184Z,101860.06
2018-11-04T03:46:07.353Z,101859.66
2018-11-04T03:48:34.517Z,101871.08
2018-11-04T03:51:01.768Z,101861.89
2018-11-04T03:53:28.922Z,101861.89
2018-11-04T03:55:56.085Z,101860.13
2018-11-04T03:58:23.278Z,101853.61
2018-11-04T04:00:50.446Z,101845.73
2018-11-04T04:03:17.614Z,101836.98
2018-11-04T04:05:44.838Z,101833.52
2018-11-04T04:08:12.052Z,101834.85
2018-11-04T04:10:39.223Z,101828.71
2018-11-04T04:13:06.462Z,101828.71
2018-11-04T04:15:33.709Z,101825.70
2018-11-04T04:18:00.885Z,101821.75
2018-11-04T04:20:28.144Z,101822.61
2018-11-04T04:22:55.300Z,101822.20
2018-11-04T04:25:22.476Z,101819.55
2018-11-04T04:27:49.695Z,101813.45
2018-11-04T04:30:16.875Z,101814.77
2018-11-04T04:32:44.033Z,101804.72
2018-11-04T04:35:11.301Z,101807.33
2018-11-04T04:37:38.943Z,101805.12
2018-11-04T04:40:06.197Z,101806.89
2018-11-04T04:42:33.435Z,101806.46
2018-11-04T04:45:00.584Z,101797.72
2018-11-04T04:47:27.765Z,101798.16
2018-11-04T04:49:55.044Z,101794.20
2018-11-04T04:52:22.188Z,101789.84
2018-11-04T04:54:49.344Z,101794.67
2018-11-04T04:57:16.772Z,101791.61
2018-11-04T04:59:43.949Z,101786.80
2018-11-04T05:02:11.120Z,101781.11
2018-11-04T05:04:38.336Z,101780.22
2018-11-04T05:07:05.563Z,101780.22
2018-11-04T05:09:32.747Z,101778.05
2018-11-04T05:11:59.997Z,101770.19
2018-11-04T05:14:27.147Z,101768.02
2018-11-04T05:16:54.408Z,101764.05
2018-11-04T05:19:21.667Z,101757.48
2018-11-04T05:21:48.863Z,101754.90
2018-11-04T05:24:16.103Z,101760.13
2018-11-04T05:26:43.408Z,101763.20
2018-11-04T05:29:10.557Z,101758.82
2018-11-04T05:31:37.724Z,101760.14
2018-11-04T05:34:05.141Z,101751.38
2018-11-04T05:36:32.304Z,101754.02
2018-11-04T05:38:59.552Z,101757.95
2018-11-04T05:41:26.821Z,101763.61
2018-11-04T05:43:54.001Z,101747.88
2018-11-04T05:46:21.197Z,101758.80
2018-11-04T05:48:48.436Z,101752.27
2018-11-04T05:51:15.661Z,101755.33
2018-11-04T05:53:42.925Z,101755.34
2018-11-04T05:56:10.305Z,101762.76
2018-11-04T05:58:37.507Z,101768.89
2018-11-04T06:01:04.802Z,101768.02
2018-11-04T06:03:32.027Z,101775.89
2018-11-04T06:05:59.266Z,101774.14
2018-11-04T06:08:26.420Z,101772.80
2018-11-04T06:10:53.691Z,101779.80
2018-11-04T06:13:20.888Z,101778.06
2018-11-04T06:15:48.095Z,101783.77
2018-11-04T06:18:15.416Z,101786.80
2018-11-04T06:20:42.785Z,101775.86
2018-11-04T06:23:10.651Z,101772.37
2018-11-04T06:25:37.851Z,101775.01
2018-11-04T06:28:05.247Z,101775.89
2018-11-04T06:30:32.419Z,101775.87
2018-11-04T06:32:59.653Z,101772.83
2018-11-04T06:35:26.798Z,101779.81
2018-11-04T06:37:54.498Z,101773.24
2018-11-04T06:40:21.736Z,101776.30
2018-11-04T06:42:48.912Z,101776.30
2018-11-04T06:45:16.075Z,101778.49
2018-11-04T06:47:43.380Z,101774.11
2018-11-04T06:50:11.985Z,101781.12
2018-11-04T06:52:39.226Z,101780.27
2018-11-04T06:55:07.148Z,101778.94
2018-11-04T06:57:34.301Z,101775.86
2018-11-04T07:00:01.597Z,101780.22
2018-11-04T07:02:28.728Z,101773.22
2018-11-04T07:04:56.135Z,101774.08
2018-11-04T07:07:23.325Z,101771.47
2018-11-04T07:09:50.506Z,101774.95
2018-11-04T07:12:18.740Z,101771.49
2018-11-04T07:14:45.871Z,101771.02
2018-11-04T07:17:13.058Z,101772.74
2018-11-04T07:19:40.249Z,101774.08
2018-11-04T07:22:07.417Z,101776.69
2018-11-04T07:24:34.600Z,101771.88
2018-11-04T07:27:01.783Z,101772.74
2018-11-04T07:29:28.931Z,101768.39
2018-11-04T07:31:56.219Z,101767.03
2018-11-04T07:34:23.312Z,101773.19
2018-11-04T07:36:50.496Z,101778.41
2018-11-04T07:39:17.684Z,101776.22
2018-11-04T07:41:44.918Z,101773.60
2018-11-04T07:44:13.666Z,101778.41
2018-11-04T07:46:40.840Z,101776.23
2018-11-04T07:49:08.061Z,101774.50
2018-11-04T07:51:35.311Z,101766.59
2018-11-04T07:54:03.761Z,101767.91
2018-11-04T07:56:31.049Z,101763.94
2018-11-04T07:58:58.258Z,101762.16
2018-11-04T08:01:25.444Z,101761.28
2018-11-04T08:03:52.616Z,101757.34
2018-11-04T08:06:19.991Z,101753.36
2018-11-04T08:08:48.744Z,101747.67
2018-11-04T08:11:15.941Z,101743.69
2018-11-04T08:13:43.196Z,101737.51
2018-11-04T08:16:10.366Z,101732.73
2018-11-04T08:18:37.587Z,101732.69
2018-11-04T08:21:04.880Z,101732.29
2018-11-04T08:23:32.109Z,101727.91
2018-11-04T08:25:59.229Z,101727.91
2018-11-04T08:28:26.362Z,101722.61
2018-11-04T08:30:53.598Z,101716.47
2018-11-04T08:33:20.733Z,101712.08
2018-11-04T08:35:47.881Z,101714.26
2018-11-04T08:38:15.029Z,101714.23
2018-11-04T08:40:42.157Z,101707.68
2018-11-04T08:43:09.289Z,101712.03
2018-11-04T08:45:36.498Z,101708.52
2018-11-04T08:48:03.688Z,101699.69
2018-11-04T08:50:30.870Z,101693.97
2018-11-04T08:52:58.149Z,101686.02
2018-11-04T08:55:25.281Z,101684.65
2018-11-04T08:57:52.394Z,101692.47
2018-11-04T09:00:19.598Z,101688.59
2018-11-04T09:02:46.708Z,101690.70
2018-11-04T09:05:13.868Z,101691.96
2018-11-04T09:07:41.130Z,101690.27
2018-11-04T09:10:11.537Z,101685.44
2018-11-04T09:12:38.653Z,101684.95
2018-11-04T09:15:06.508Z,101682.80
2018-11-04T09:17:33.799Z,101691.09
2018-11-04T09:20:00.929Z,101688.02
2018-11-04T09:22:28.188Z,101685.02
2018-11-04T09:24:55.248Z,101689.77
2018-11-04T09:27:22.384Z,101685.83
2018-11-04T09:29:49.589Z,101689.31
2018-11-04T09:32:16.737Z,101680.98
2018-11-04T09:34:43.894Z,101674.84
2018-11-04T09:37:11.100Z,101682.72
2018-11-04T09:39:38.224Z,101673.98
2018-11-04T09:42:05.409Z,101677.47
2018-11-04T09:44:32.683Z,101679.22
2018-11-04T09:46:59.820Z,101669.08
2018-11-04T09:49:26.945Z,101664.68
2018-11-04T09:51:54.184Z,101662.47
2018-11-04T09:54:21.306Z,101661.09
2018-11-04T09:56:48.437Z,101657.55
2018-11-04T09:59:15.673Z,101658.90
2018-11-04T10:01:42.807Z,101658.00
2018-11-04T10:04:09.952Z,101657.20
2018-11-04T10:06:37.150Z,101658.88
2018-11-04T10:09:06.698Z,101647.85
2018-11-04T10:11:33.834Z,101651.88
2018-11-04T10:14:01.119Z,101650.56
2018-11-04T10:16:28.354Z,101647.57
2018-11-04T10:18:55.508Z,101642.28
2018-11-04T10:21:22.676Z,101639.16
2018-11-04T10:23:49.800Z,101632.98
2018-11-04T10:26:16.932Z,101633.89
2018-11-04T10:28:44.093Z,101631.70
2018-11-04T10:31:11.237Z,101626.45
2018-11-04T10:33:38.357Z,101621.69
2018-11-04T10:36:05.805Z,101614.91
2018-11-04T10:38:32.933Z,101615.38
2018-11-04T10:41:00.069Z,101610.55
2018-11-04T10:43:27.356Z,101603.52
2018-11-04T10:45:54.485Z,101606.61
2018-11-04T10:48:21.632Z,101594.65
2018-11-04T10:50:48.816Z,101589.39
2018-11-04T10:53:15.955Z,101592.87
2018-11-04T10:55:43.180Z,101593.78
2018-11-04T10:58:10.333Z,101591.14
2018-11-04T11:00:43.154Z,101587.25
2018-11-04T11:03:10.412Z,101587.63
2018-11-04T11:05:37.553Z,101588.56
2018-11-04T11:08:04.905Z,101579.73
2018-11-04T11:10:32.079Z,101573.98
2018-11-04T11:12:59.220Z,101571.91
2018-11-04T11:15:26.345Z,101566.13
2018-11-04T11:17:53.531Z,101562.41
2018-11-04T11:20:20.661Z,101563.11
2018-11-04T11:22:47.900Z,101557.80
2018-11-04T11:25:15.071Z,101551.95
2018-11-04T11:27:42.277Z,101549.84
2018-11-04T11:30:09.469Z,101552.91
2018-11-04T11:32:36.681Z,101542.66
2018-11-04T11:35:04.040Z,101536.19
2018-11-04T11:37:31.193Z,101530.41
2018-11-04T11:39:58.389Z,101524.64
2018-11-04T11:42:25.572Z,101521.00
2018-11-04T11:44:52.726Z,101519.83
2018-11-04T11:47:19.885Z,101513.73
2018-11-04T11:49:47.020Z,101516.36
2018-11-04T11:52:14.169Z,101513.31
2018-11-04T11:54:41.416Z,101513.34
2018-11-04T11:57:08.543Z,101505.83
2018-11-04T11:59:35.682Z,101503.59
2018-11-04T12:02:02.884Z,101507.89
2018-11-04T12:04:30.014Z,101490.27
2018-11-04T12:06:57.172Z,101486.58
2018-11-04T12:09:24.369Z,101495.55
2018-11-04T12:11:51.517Z,101489.77
2018-11-04T12:14:18.646Z,101491.16
2018-11-04T12:16:45.839Z,101481.03
2018-11-04T12:19:12.995Z,101484.57
2018-11-04T12:21:40.137Z,101478.72
2018-11-04T12:24:07.426Z,101479.28
2018-11-04T12:26:34.577Z,101478.59
2018-11-04T12:29:01.725Z,101471.71
2018-11-04T12:31:28.896Z,101468.64
2018-11-04T12:33:56.045Z,101462.91
2018-11-04T12:36:23.245Z,101466.94
2018-11-04T12:38:50.407Z,101459.50
2018-11-04T12:41:17.565Z,101450.72
2018-11-04T12:43:44.696Z,101452.96
2018-11-04T12:46:11.864Z,101451.20
2018-11-04T12:48:38.985Z,101450.41
2018-11-04T12:51:06.112Z,101448.64
2018-11-04T12:53:33.444Z,101451.63
2018-11-04T12:56:00.563Z,101449.98
2018-11-04T12:58:27.693Z,101449.65
2018-11-04T13:00:54.899Z,101439.05
2018-11-04T13:03:22.018Z,101438.59
2018-11-04T13:05:49.178Z,101437.75
2018-11-04T13:08:16.409Z,101439.02
2018-11-04T13:10:43.555Z,101440.48
2018-11-04T13:13:10.714Z,101433.03
2018-11-04T13:15:37.924Z,101427.39
2018-11-04T13:18:05.626Z,101422.58
2018-11-04T13:20:32.761Z,101426.06
2018-11-04T13:22:59.963Z,101416.36
2018-11-04T13:25:27.099Z,101410.59
2018-11-04T13:27:54.241Z,101412.39
2018-11-04T13:30:21.568Z,101411.07
2018-11-04T13:32:48.732Z,101403.72
2018-11-04T13:35:15.880Z,101411.92
2018-11-04T13:37:43.165Z,101404.45
2018-11-04T13:40:11.205Z,101403.59
2018-11-04T13:42:38.490Z,101404.47
2018-11-04T13:45:06.354Z,101400.95
2018-11-04T13:47:33.536Z,101404.91
2018-11-04T13:50:00.676Z,101411.09
2018-11-04T13:52:27.927Z,101407.22
2018-11-04T13:54:55.074Z,101409.02
2018-11-04T13:57:22.262Z,101414.69
2018-11-04T13:59:49.452Z,101409.42
2018-11-04T14:02:16.618Z,101410.33
2018-11-04T14:04:43.769Z,101415.98
2018-11-04T14:07:11.009Z,101413.37
2018-11-04T14:09:38.248Z,101401.97
2018-11-04T14:12:05.476Z,101408.95
2018-11-04T14:14:33.712Z,101407.70
2018-11-04T14:17:00.875Z,101404.60
2018-11-04T14:19:28.037Z,101397.59
2018-11-04T14:21:55.257Z,101400.69
2018-11-04T14:24:22.426Z,101397.23
2018-11-04T14:26:49.590Z,101395.97
2018-11-04T14:29:16.781Z,101393.28
2018-11-04T14:31:43.939Z,101387.21
2018-11-04T14:34:11.083Z,101392.45
2018-11-04T14:36:38.290Z,101387.21
2018-11-04T14:39:08.000Z,101387.72
2018-11-04T14:41:35.154Z,101384.58
2018-11-04T14:44:02.369Z,101384.64
2018-11-04T14:46:29.538Z,101379.54
2018-11-04T14:48:56.693Z,101378.69
2018-11-04T14:51:23.881Z,101377.32
2018-11-04T14:53:51.067Z,101377.70
2018-11-04T14:56:18.279Z,101369.94
2018-11-04T14:58:45.508Z,101373.48
2018-11-04T15:01:12.684Z,101379.08
2018-11-04T15:03:39.845Z,101381.63
2018-11-04T15:06:07.057Z,101376.92
2018-11-04T15:08:34.270Z,101374.31
2018-11-04T15:11:01.476Z,101372.50
2018-11-04T15:13:28.684Z,101372.08
2018-11-04T15:15:55.833Z,101367.28
2018-11-04T15:18:23.842Z,101369.87
2018-11-04T15:20:51.045Z,101364.67
2018-11-04T15:23:18.208Z,101377.77
2018-11-04T15:25:45.358Z,101376.89
2018-11-04T15:28:12.563Z,101371.12
2018-11-04T15:30:39.709Z,101374.70
2018-11-04T15:33:06.873Z,101378.27
2018-11-04T15:35:34.097Z,101373.38
2018-11-04T15:38:01.264Z,101371.20
2018-11-04T15:40:28.558Z,101363.75
2018-11-04T15:42:55.683Z,101366.40
2018-11-04T15:45:22.844Z,101363.35
2018-11-04T15:47:50.043Z,101357.62
2018-11-04T15:50:18.369Z,101360.28
2018-11-04T15:52:45.942Z,101353.22
2018-11-04T15:55:13.084Z,101359.39
2018-11-04T15:57:40.313Z,101355.02
2018-11-04T16:00:09.183Z,101354.14
2018-11-04T16:02:36.361Z,101352.33
2018-11-04T16:05:03.803Z,101353.77
2018-11-04T16:07:30.986Z,101357.62
2018-11-04T16:09:58.140Z,101345.80
2018-11-04T16:12:25.536Z,101343.62
2018-11-04T16:14:52.748Z,101340.61
2018-11-04T16:17:19.813Z,101336.23
2018-11-04T16:19:47.253Z,101342.27
2018-11-04T16:22:14.504Z,101332.70
2018-11-04T16:24:41.677Z,101340.97
2018-11-04T16:27:08.921Z,101342.70
2018-11-04T16:29:36.068Z,101347.52
2018-11-04T16:32:03.305Z,101343.68
2018-11-04T16:34:30.544Z,101340.64
2018-11-04T16:36:57.759Z,101334.78
2018-11-04T16:39:24.984Z,101337.88
2018-11-04T16:41:53.201Z,101335.66
2018-11-04T16:44:20.448Z,101338.72
2018-11-04T16:46:47.565Z,101335.66
2018-11-04T16:49:14.773Z,101335.70
2018-11-04T16:51:41.935Z,101342.73
2018-11-04T16:54:09.115Z,101343.11
2018-11-04T16:56:36.604Z,101333.40
2018-11-04T16:59:04.244Z,101336.98
2018-11-04T17:01:31.397Z,101335.21
2018-11-04T17:03:58.681Z,101338.75
2018-11-04T17:06:25.877Z,101331.30
2018-11-04T17:08:53.023Z,101331.20
2018-11-04T17:11:20.298Z,101332.58
2018-11-04T17:13:47.414Z,101332.95
2018-11-04T17:16:14.585Z,101338.28
2018-11-04T17:18:41.800Z,101346.16
2018-11-04T17:21:08.936Z,101337.34
2018-11-04T17:23:36.572Z,101339.05
2018-11-04T17:26:03.784Z,101332.49
2018-11-04T17:28:30.965Z,101333.34
2018-11-04T17:30:58.132Z,101327.66
2018-11-04T17:33:25.359Z,101332.88
2018-11-04T17:35:52.526Z,101333.77
2018-11-04T17:38:19.719Z,101323.69
2018-11-04T17:40:46.984Z,101325.88
2018-11-04T17:43:14.189Z,101322.36
2018-11-04T17:45:41.350Z,101314.78
2018-11-04T17:48:08.581Z,101310.84
2018-11-04T17:50:35.738Z,101315.14
2018-11-04T17:53:02.965Z,101310.41
2018-11-04T17:55:30.176Z,101309.09
2018-11-04T17:57:57.338Z,101306.02
2018-11-04T18:00:24.496Z,101311.59
2018-11-04T18:02:52.409Z,101307.22
2018-11-04T18:05:19.603Z,101305.00
2018-11-04T18:07:46.755Z,101305.02
2018-11-04T18:10:15.024Z,101309.80
2018-11-04T18:12:42.488Z,101308.48
2018-11-04T18:15:10.615Z,101302.77
2018-11-04T18:17:37.939Z,101298.00
2018-11-04T18:20:06.361Z,101297.92
2018-11-04T18:22:33.712Z,101298.80
2018-11-04T18:25:00.904Z,101293.55
2018-11-04T18:27:28.265Z,101290.98
2018-11-04T18:29:55.406Z,101297.58
2018-11-04T18:32:23.100Z,101294.89
2018-11-04T18:34:50.305Z,101297.95
2018-11-04T18:37:17.604Z,101297.08
2018-11-04T18:39:45.171Z,101296.20
2018-11-04T18:42:12.329Z,101292.69
2018-11-04T18:44:39.601Z,101293.61
2018-11-04T18:47:06.749Z,101295.39
2018-11-04T18:49:33.945Z,101292.73
2018-11-04T18:52:01.079Z,101277.83
2018-11-04T18:54:28.289Z,101274.73
2018-11-04T18:56:55.756Z,101272.56
2018-11-04T18:59:22.953Z,101274.17
2018-11-04T19:01:50.198Z,101269.06
2018-11-04T19:04:17.553Z,101272.10
2018-11-04T19:06:44.743Z,101269.98
2018-11-04T19:09:11.939Z,101269.55
2018-11-04T19:11:39.249Z,101261.57
2018-11-04T19:14:06.484Z,101269.94
2018-11-04T19:16:33.861Z,101264.28
2018-11-04T19:19:01.225Z,101272.62
2018-11-04T19:21:28.269Z,101270.03
2018-11-04T19:23:55.484Z,101275.59
2018-11-04T19:26:22.631Z,101276.12
2018-11-04T19:28:49.801Z,101265.98
2018-11-04T19:31:17.048Z,101252.80
2018-11-04T19:33:44.181Z,101248.48
2018-11-04T19:36:11.342Z,101255.82
2018-11-04T19:38:38.560Z,101245.72
2018-11-04T19:41:05.720Z,101248.41
2018-11-04T19:43:32.850Z,101250.13
2018-11-04T19:46:00.061Z,101248.39
2018-11-04T19:48:27.274Z,101259.36
2018-11-04T19:50:54.455Z,101265.92
2018-11-04T19:53:21.621Z,101257.48
2018-11-04T19:55:48.781Z,101265.54
2018-11-04T19:58:15.929Z,101264.19
2018-11-04T20:00:43.161Z,101271.17
2018-11-04T20:03:10.292Z,101255.35
2018-11-04T20:05:37.512Z,101254.95
2018-11-04T20:08:05.083Z,101250.58
2018-11-04T20:10:32.221Z,101245.72
2018-11-04T20:13:05.295Z,101243.05
2018-11-04T20:15:32.506Z,101251.45
2018-11-04T20:17:59.789Z,101249.70
2018-11-04T20:20:27.264Z,101260.97
2018-11-04T20:22:54.545Z,101257.94
2018-11-04T20:25:27.542Z,101259.23
2018-11-04T20:27:54.736Z,101248.39
2018-11-04T20:30:22.193Z,101240.80
2018-11-04T20:32:55.164Z,101254.50
2018-11-04T20:35:22.328Z,101244.02
2018-11-04T20:37:49.481Z,101239.58
2018-11-04T20:40:22.393Z,101244.82
2018-11-04T20:42:49.564Z,101243.89
2018-11-04T20:45:16.843Z,101232.56
2018-11-04T20:47:49.695Z,101223.78
2018-11-04T20:50:22.454Z,101229.06
2018-11-04T20:52:49.729Z,101219.38
2018-11-04T20:55:16.952Z,101218.53
2018-11-04T20:57:47.557Z,101217.17
2018-11-04T21:00:14.745Z,101207.52
2018-11-04T21:02:42.678Z,101204.80
2018-11-04T21:05:09.791Z,101209.63
2018-11-04T21:07:36.997Z,101199.53
2018-11-04T21:10:05.726Z,101199.52
2018-11-04T21:12:32.819Z,101200.83
2018-11-04T21:15:00.148Z,101206.56
2018-11-04T21:17:27.286Z,101189.91
2018-11-04T21:19:54.431Z,101197.80
2018-11-04T21:22:21.770Z,101198.58
2018-11-04T21:24:48.899Z,101199.06
2018-11-04T21:27:16.138Z,101189.41
2018-11-04T21:29:43.653Z,101194.20
2018-11-04T21:32:10.596Z,101191.91
2018-11-04T21:34:37.796Z,101177.08
2018-11-04T21:37:05.520Z,101180.66
2018-11-04T21:39:32.659Z,101185.41
2018-11-04T21:41:59.840Z,101188.13
2018-11-04T21:44:27.206Z,101186.33
2018-11-04T21:46:54.414Z,101175.44
2018-11-04T21:49:21.665Z,101178.45
2018-11-04T21:51:48.872Z,101171.42
2018-11-04T21:54:16.104Z,101162.67
2018-11-04T21:56:43.529Z,101154.75
2018-11-04T21:59:10.752Z,101157.42
2018-11-04T22:01:37.906Z,101161.35
2018-11-04T22:04:05.150Z,101168.73
2018-11-04T22:06:32.362Z,101159.61
2018-11-04T22:08:59.528Z,101160.04
2018-11-04T22:11:26.703Z,101168.34
2018-11-04T22:13:55.626Z,101173.22
2018-11-04T22:16:22.793Z,101157.42
2018-11-04T22:18:49.936Z,101158.67
2018-11-04T22:21:17.328Z,101148.27
2018-11-04T22:23:44.491Z,101149.50
2018-11-04T22:26:11.703Z,101142.52
2018-11-04T22:28:38.965Z,101135.49
2018-11-04T22:31:06.156Z,101136.77
2018-11-04T22:33:33.412Z,101142.05
2018-11-04T22:36:00.613Z,101146.13
2018-11-04T22:38:27.787Z,101151.64
2018-11-04T22:40:54.958Z,101153.91
2018-11-04T22:43:22.197Z,101165.75
2018-11-04T22:45:49.340Z,101164.86
2018-11-04T22:48:16.500Z,101138.48
2018-11-04T22:50:43.720Z,101122.20
2018-11-04T22:53:10.953Z,101127.57
2018-11-04T22:55:38.115Z,101156.98
2018-11-04T22:58:06.551Z,101160.02
2018-11-04T23:00:39.801Z,101150.82
2018-11-04T23:03:07.093Z,101150.80
2018-11-04T23:05:34.238Z,101139.39
2018-11-04T23:08:01.400Z,101144.95
2018-11-04T23:10:28.665Z,101143.32
2018-11-04T23:12:55.825Z,101133.13
2018-11-04T23:15:24.042Z,101116.56
2018-11-04T23:17:51.286Z,101123.99
2018-11-04T23:20:18.477Z,101141.87
2018-11-04T23:22:45.672Z,101133.97
2018-11-04T23:25:13.695Z,101132.26
2018-11-04T23:27:41.545Z,101137.48
2018-11-04T23:30:10.500Z,101125.78
2018-11-04T23:32:37.712Z,101115.12
2018-11-04T23:35:05.198Z,101109.56
2018-11-04T23:37:32.418Z,101111.32
2018-11-04T23:39:59.739Z,101117.73
2018-11-04T23:42:27.035Z,101118.26
2018-11-04T23:44:54.253Z,101118.26
2018-11-04T23:47:21.468Z,101127.95
2018-11-04T23:49:48.614Z,101115.56
2018-11-04T23:52:15.788Z,101119.48
2018-11-04T23:54:43.008Z,101114.30
2018-11-04T23:57:10.176Z,101110.80
2018-11-04T23:59:37.329Z,101118.97
